createdAt,value
2018-07-10T00:01:44.522Z,101595.55
2018-07-10T00:04:12.834Z,101598.80
2018-07-10T00:06:41.724Z,101598.58
2018-07-10T00:09:10.098Z,101596.80
2018-07-10T00:11:37.830Z,101597.80
2018-07-10T00:14:06.152Z,101598.45
2018-07-10T00:16:35.562Z,101597.67
2018-07-10T00:19:03.881Z,101596.16
2018-07-10T00:21:32.223Z,101592.78
2018-07-10T00:23:59.964Z,101587.42
2018-07-10T00:26:29.232Z,101585.61
2018-07-10T00:28:57.953Z,101587.04
2018-07-10T00:31:26.265Z,101588.05
2018-07-10T00:33:54.996Z,101586.86
2018-07-10T00:36:23.069Z,101591.38
2018-07-10T00:38:57.534Z,101590.86
2018-07-10T00:41:26.139Z,101592.95
2018-07-10T00:43:54.688Z,101597.86
2018-07-10T00:46:22.567Z,101601.06
2018-07-10T00:48:51.736Z,101600.92
2018-07-10T00:51:20.586Z,101600.78
2018-07-10T00:53:49.883Z,101599.50
2018-07-10T00:56:17.631Z,101603.44
2018-07-10T00:58:45.941Z,101601.78
2018-07-10T01:01:14.846Z,101603.42
2018-07-10T01:03:43.289Z,101602.28
2018-07-10T01:06:11.606Z,101602.39
2018-07-10T01:08:39.921Z,101603.58
2018-07-10T01:11:08.413Z,101602.42
2018-07-10T01:13:36.733Z,101600.05
2018-07-10T01:16:04.719Z,101594.70
2018-07-10T01:18:33.373Z,101589.75
2018-07-10T01:21:01.135Z,101589.16
2018-07-10T01:23:29.427Z,101592.33
2018-07-10T01:25:57.744Z,101592.23
2018-07-10T01:28:26.062Z,101584.92
2018-07-10T01:30:54.375Z,101585.80
2018-07-10T01:33:22.692Z,101583.25
2018-07-10T01:35:51.586Z,101577.75
2018-07-10T01:38:19.898Z,101576.37
2018-07-10T01:40:48.529Z,101576.03
2018-07-10T01:43:16.853Z,101574.34
2018-07-10T01:45:44.581Z,101570.64
2018-07-10T01:48:12.901Z,101569.22
2018-07-10T01:50:41.794Z,101564.00
2018-07-10T01:53:09.927Z,101564.17
2018-07-10T01:55:38.446Z,101562.55
2018-07-10T01:58:06.320Z,101557.33
2018-07-10T02:00:35.380Z,101557.27
2018-07-10T02:03:03.703Z,101559.41
2018-07-10T02:05:33.581Z,101557.62
2018-07-10T02:08:01.266Z,101558.66
2018-07-10T02:10:29.575Z,101559.27
2018-07-10T02:12:57.331Z,101552.94
2018-07-10T02:15:26.224Z,101550.69
2018-07-10T02:17:53.967Z,101551.10
2018-07-10T02:20:22.294Z,101548.05
2018-07-10T02:22:50.620Z,101552.19
2018-07-10T02:25:18.928Z,101549.50
2018-07-10T02:27:47.824Z,101548.17
2018-07-10T02:30:16.484Z,101554.44
2018-07-10T02:32:44.794Z,101552.64
2018-07-10T02:35:13.117Z,101552.05
2018-07-10T02:37:41.701Z,101551.92
2018-07-10T02:40:09.449Z,101545.64
2018-07-10T02:42:38.334Z,101544.95
2018-07-10T02:45:06.083Z,101548.21
2018-07-10T02:47:34.982Z,101549.75
2018-07-10T02:50:02.726Z,101547.34
2018-07-10T02:52:31.616Z,101548.02
2018-07-10T02:54:59.934Z,101548.90
2018-07-10T02:57:28.259Z,101551.49
2018-07-10T02:59:56.072Z,101549.64
2018-07-10T03:02:24.903Z,101549.09
2018-07-10T03:04:53.211Z,101550.61
2018-07-10T03:07:21.679Z,101549.80
2018-07-10T03:09:50.394Z,101551.56
2018-07-10T03:12:18.350Z,101552.19
2018-07-10T03:14:47.278Z,101552.02
2018-07-10T03:17:15.080Z,101549.06
2018-07-10T03:19:43.409Z,101548.26
2018-07-10T03:22:12.213Z,101544.87
2018-07-10T03:24:40.543Z,101541.64
2018-07-10T03:27:09.199Z,101540.48
2018-07-10T03:29:37.508Z,101534.16
2018-07-10T03:32:05.244Z,101539.55
2018-07-10T03:34:33.566Z,101537.07
2018-07-10T03:37:02.828Z,101541.81
2018-07-10T03:39:31.167Z,101538.70
2018-07-10T03:41:59.484Z,101543.06
2018-07-10T03:44:28.040Z,101546.63
2018-07-10T03:46:56.350Z,101543.94
2018-07-10T03:49:24.672Z,101546.98
2018-07-10T03:51:52.407Z,101549.89
2018-07-10T03:54:20.732Z,101548.44
2018-07-10T03:56:49.625Z,101550.95
2018-07-10T03:59:17.949Z,101554.28
2018-07-10T04:01:46.283Z,101552.53
2018-07-10T04:04:14.030Z,101548.56
2018-07-10T04:06:42.339Z,101550.67
2018-07-10T04:09:10.695Z,101546.71
2018-07-10T04:11:39.021Z,101551.96
2018-07-10T04:14:07.283Z,101550.79
2018-07-10T04:16:35.644Z,101553.45
2018-07-10T04:19:04.560Z,101557.70
2018-07-10T04:21:32.292Z,101550.80
2018-07-10T04:24:01.176Z,101551.31
2018-07-10T04:26:29.492Z,101552.16
2018-07-10T04:28:57.485Z,101554.21
2018-07-10T04:31:25.629Z,101557.51
2018-07-10T04:33:54.444Z,101559.20
2018-07-10T04:36:22.177Z,101559.13
2018-07-10T04:38:51.074Z,101557.94
2018-07-10T04:41:19.406Z,101554.79
2018-07-10T04:43:47.144Z,101560.89
2018-07-10T04:46:15.490Z,101561.19
2018-07-10T04:48:44.358Z,101563.08
2018-07-10T04:51:12.681Z,101565.84
2018-07-10T04:53:40.412Z,101565.44
2018-07-10T04:56:09.306Z,101570.13
2018-07-10T04:58:37.044Z,101571.63
2018-07-10T05:01:05.941Z,101572.20
2018-07-10T05:03:33.679Z,101570.49
2018-07-10T05:06:02.191Z,101576.27
2018-07-10T05:08:30.380Z,101572.09
2018-07-10T05:10:59.205Z,101571.02
2018-07-10T05:13:26.943Z,101571.54
2018-07-10T05:15:55.840Z,101570.72
2018-07-10T05:18:24.197Z,101574.05
2018-07-10T05:20:53.497Z,101573.09
2018-07-10T05:23:21.456Z,101577.19
2018-07-10T05:25:49.209Z,101575.48
2018-07-10T05:28:18.111Z,101581.15
2018-07-10T05:30:46.430Z,101584.45
2018-07-10T05:33:14.744Z,101589.25
2018-07-10T05:35:43.065Z,101590.54
2018-07-10T05:38:11.387Z,101587.30
2018-07-10T05:40:39.121Z,101587.66
2018-07-10T05:43:07.600Z,101585.73
2018-07-10T05:45:35.893Z,101586.61
2018-07-10T05:48:04.647Z,101589.87
2018-07-10T05:50:32.403Z,101588.70
2018-07-10T05:53:01.045Z,101590.16
2018-07-10T05:55:29.011Z,101588.84
2018-07-10T05:57:57.901Z,101585.72
2018-07-10T06:00:25.654Z,101585.51
2018-07-10T06:02:54.528Z,101580.16
2018-07-10T06:05:22.840Z,101582.60
2018-07-10T06:07:50.590Z,101580.30
2018-07-10T06:10:18.923Z,101584.59
2018-07-10T06:12:47.799Z,101586.45
2018-07-10T06:15:16.146Z,101589.49
2018-07-10T06:17:44.434Z,101587.50
2018-07-10T06:20:12.166Z,101584.63
2018-07-10T06:22:41.056Z,101586.47
2018-07-10T06:25:09.368Z,101590.60
2018-07-10T06:27:37.681Z,101590.91
2018-07-10T06:30:05.990Z,101593.53
2018-07-10T06:32:34.300Z,101594.66
2018-07-10T06:35:02.331Z,101594.05
2018-07-10T06:37:30.372Z,101600.09
2018-07-10T06:39:58.689Z,101600.04
2018-07-10T06:42:26.993Z,101598.00
2018-07-10T06:44:55.338Z,101599.20
2018-07-10T06:47:23.613Z,101599.52
2018-07-10T06:49:52.395Z,101604.14
2018-07-10T06:52:20.929Z,101602.19
2018-07-10T06:54:48.580Z,101604.23
2018-07-10T06:57:17.477Z,101607.16
2018-07-10T06:59:45.210Z,101609.72
2018-07-10T07:02:14.111Z,101610.58
2018-07-10T07:04:42.097Z,101609.06
2018-07-10T07:07:10.169Z,101606.92
2018-07-10T07:09:39.060Z,101605.60
2018-07-10T07:12:07.373Z,101601.39
2018-07-10T07:14:35.687Z,101604.28
2018-07-10T07:17:04.009Z,101605.64
2018-07-10T07:19:32.327Z,101606.52
2018-07-10T07:22:00.957Z,101604.97
2018-07-10T07:24:29.271Z,101604.28
2018-07-10T07:26:57.582Z,101601.88
2018-07-10T07:29:25.334Z,101604.27
2018-07-10T07:31:53.654Z,101604.62
2018-07-10T07:34:22.548Z,101610.42
2018-07-10T07:36:50.870Z,101602.72
2018-07-10T07:39:18.817Z,101608.92
2018-07-10T07:41:47.516Z,101604.48
2018-07-10T07:44:15.298Z,101609.69
2018-07-10T07:46:43.578Z,101614.39
2018-07-10T07:49:12.474Z,101612.36
2018-07-10T07:51:40.211Z,101615.02
2018-07-10T07:54:09.113Z,101621.00
2018-07-10T07:56:37.428Z,101623.78
2018-07-10T07:59:05.168Z,101619.36
2018-07-10T08:01:33.543Z,101619.89
2018-07-10T08:04:01.806Z,101621.87
2018-07-10T08:06:30.186Z,101620.88
2018-07-10T08:08:58.505Z,101621.09
2018-07-10T08:11:27.401Z,101628.72
2018-07-10T08:13:55.145Z,101624.00
2018-07-10T08:16:23.472Z,101623.53
2018-07-10T08:18:51.809Z,101622.92
2018-07-10T08:21:20.441Z,101614.98
2018-07-10T08:23:48.515Z,101617.36
2018-07-10T08:26:17.409Z,101611.05
2018-07-10T08:28:45.154Z,101616.58
2018-07-10T08:31:13.462Z,101614.31
2018-07-10T08:33:41.893Z,101611.16
2018-07-10T08:36:10.089Z,101612.86
2018-07-10T08:38:38.408Z,101611.48
2018-07-10T08:41:06.725Z,101612.87
2018-07-10T08:43:35.057Z,101611.02
2018-07-10T08:46:04.024Z,101615.99
2018-07-10T08:48:32.216Z,101613.72
2018-07-10T08:51:00.660Z,101614.34
2018-07-10T08:53:28.408Z,101613.99
2018-07-10T08:55:56.727Z,101619.72
2018-07-10T08:58:25.089Z,101616.37
2018-07-10T09:00:53.966Z,101615.29
2018-07-10T09:03:22.592Z,101614.97
2018-07-10T09:05:50.766Z,101619.42
2018-07-10T09:08:19.117Z,101622.80
2018-07-10T09:10:47.472Z,101618.09
2018-07-10T09:13:15.208Z,101621.91
2018-07-10T09:15:43.533Z,101620.00
2018-07-10T09:18:11.937Z,101621.25
2018-07-10T09:20:40.266Z,101622.19
2018-07-10T09:23:09.318Z,101618.27
2018-07-10T09:25:37.629Z,101620.83
2018-07-10T09:28:06.070Z,101623.42
2018-07-10T09:30:33.816Z,101631.19
2018-07-10T09:33:02.134Z,101623.29
2018-07-10T09:35:31.357Z,101625.70
2018-07-10T09:37:59.146Z,101623.33
2018-07-10T09:40:28.095Z,101621.38
2018-07-10T09:42:56.410Z,101619.66
2018-07-10T09:45:24.757Z,101623.37
2018-07-10T09:47:53.184Z,101619.39
2018-07-10T09:50:21.504Z,101620.37
2018-07-10T09:52:49.818Z,101617.52
2018-07-10T09:55:18.144Z,101618.01
2018-07-10T09:57:46.572Z,101617.72
2018-07-10T10:00:14.936Z,101615.00
2018-07-10T10:02:42.674Z,101615.84
2018-07-10T10:05:11.663Z,101613.53
2018-07-10T10:07:39.407Z,101611.66
2018-07-10T10:10:08.418Z,101612.71
2018-07-10T10:12:36.837Z,101619.24
2018-07-10T10:15:04.574Z,101616.92
2018-07-10T10:17:33.465Z,101621.16
2018-07-10T10:20:01.205Z,101621.17
2018-07-10T10:22:29.586Z,101620.13
2018-07-10T10:24:58.566Z,101623.57
2018-07-10T10:27:26.351Z,101617.65
2018-07-10T10:29:55.268Z,101620.20
2018-07-10T10:32:23.556Z,101617.94
2018-07-10T10:34:51.871Z,101612.45
2018-07-10T10:37:20.205Z,101617.21
2018-07-10T10:39:48.534Z,101624.00
2018-07-10T10:42:16.339Z,101618.28
2018-07-10T10:44:45.165Z,101614.42
2018-07-10T10:47:12.898Z,101612.36
2018-07-10T10:49:41.268Z,101617.01
2018-07-10T10:52:10.165Z,101615.44
2018-07-10T10:54:38.481Z,101618.31
2018-07-10T10:57:06.216Z,101620.63
2018-07-10T10:59:35.108Z,101625.14
2018-07-10T11:02:03.421Z,101621.95
2018-07-10T11:04:31.753Z,101618.25
2018-07-10T11:07:00.409Z,101621.30
2018-07-10T11:09:28.307Z,101618.80
2018-07-10T11:11:57.170Z,101621.50
2018-07-10T11:14:25.477Z,101617.43
2018-07-10T11:16:53.213Z,101623.38
2018-07-10T11:19:21.570Z,101622.88
2018-07-10T11:21:50.420Z,101623.06
2018-07-10T11:24:18.731Z,101619.16
2018-07-10T11:26:46.485Z,101624.78
2018-07-10T11:29:15.394Z,101622.48
2018-07-10T11:31:43.707Z,101620.40
2018-07-10T11:34:12.029Z,101618.57
2018-07-10T11:36:40.358Z,101615.22
2018-07-10T11:39:08.745Z,101616.92
2018-07-10T11:41:37.031Z,101621.49
2018-07-10T11:44:04.788Z,101620.05
2018-07-10T11:46:33.704Z,101621.63
2018-07-10T11:49:02.017Z,101629.01
2018-07-10T11:51:30.420Z,101626.37
2018-07-10T11:53:58.081Z,101626.05
2018-07-10T11:56:26.986Z,101626.09
2018-07-10T11:58:54.726Z,101628.79
2018-07-10T12:01:23.621Z,101628.47
2018-07-10T12:03:51.371Z,101630.31
2018-07-10T12:06:19.706Z,101625.86
2018-07-10T12:08:48.596Z,101614.54
2018-07-10T12:11:16.916Z,101617.67
2018-07-10T12:13:45.251Z,101614.50
2018-07-10T12:16:12.979Z,101617.13
2018-07-10T12:18:41.883Z,101620.27
2018-07-10T12:21:10.205Z,101621.89
2018-07-10T12:23:38.524Z,101625.39
2018-07-10T12:26:06.276Z,101627.23
2018-07-10T12:28:35.685Z,101625.70
2018-07-10T12:31:04.573Z,101625.31
2018-07-10T12:33:32.904Z,101633.29
2018-07-10T12:36:00.698Z,101630.42
2018-07-10T12:38:28.951Z,101634.97
2018-07-10T12:40:57.838Z,101635.95
2018-07-10T12:43:25.578Z,101635.53
2018-07-10T12:45:54.477Z,101636.00
2018-07-10T12:48:22.878Z,101635.44
2018-07-10T12:50:50.606Z,101639.55
2018-07-10T12:53:18.921Z,101639.11
2018-07-10T12:55:47.233Z,101639.20
2018-07-10T12:58:16.128Z,101642.83
2018-07-10T13:00:43.868Z,101632.58
2018-07-10T13:03:12.223Z,101637.65
2018-07-10T13:05:41.393Z,101641.13
2018-07-10T13:08:10.074Z,101641.08
2018-07-10T13:10:38.393Z,101641.37
2018-07-10T13:13:06.733Z,101637.00
2018-07-10T13:15:35.118Z,101635.59
2018-07-10T13:18:03.537Z,101635.08
2018-07-10T13:20:31.881Z,101633.81
2018-07-10T13:22:59.608Z,101633.34
2018-07-10T13:25:28.815Z,101635.23
2018-07-10T13:27:56.611Z,101631.02
2018-07-10T13:30:24.868Z,101625.38
2018-07-10T13:32:53.782Z,101623.80
2018-07-10T13:35:22.100Z,101621.33
2018-07-10T13:37:49.835Z,101621.11
2018-07-10T13:40:18.986Z,101623.11
2018-07-10T13:42:47.339Z,101624.03
2018-07-10T13:45:15.108Z,101622.89
2018-07-10T13:47:43.999Z,101623.87
2018-07-10T13:50:11.733Z,101624.34
2018-07-10T13:52:41.542Z,101627.38
2018-07-10T13:55:09.273Z,101620.41
2018-07-10T13:57:38.172Z,101625.63
2018-07-10T14:00:06.488Z,101621.03
2018-07-10T14:02:34.797Z,101620.90
2018-07-10T14:05:02.544Z,101621.31
2018-07-10T14:07:30.874Z,101624.64
2018-07-10T14:09:59.195Z,101627.34
2018-07-10T14:12:28.467Z,101624.52
2018-07-10T14:14:56.766Z,101622.44
2018-07-10T14:17:24.512Z,101626.84
2018-07-10T14:19:52.832Z,101624.53
2018-07-10T14:22:21.745Z,101628.98
2018-07-10T14:24:49.475Z,101628.05
2018-07-10T14:27:18.411Z,101627.83
2018-07-10T14:32:45.270Z,101615.64
2018-07-10T14:35:19.692Z,101613.55
2018-07-10T14:37:48.142Z,101612.92
2018-07-10T14:40:16.475Z,101615.12
2018-07-10T14:42:44.994Z,101614.27
2018-07-10T14:45:15.287Z,101608.90
2018-07-10T14:47:43.472Z,101612.29
2018-07-10T14:50:12.517Z,101610.95
2018-07-10T14:52:41.670Z,101610.77
2018-07-10T14:55:14.915Z,101613.55
2018-07-10T14:57:42.960Z,101614.55
2018-07-10T15:00:10.704Z,101607.94
2018-07-10T15:02:39.615Z,101612.93
2018-07-10T15:05:21.647Z,101606.30
2018-07-10T15:07:49.148Z,101602.51
2018-07-10T15:10:20.201Z,101592.13
2018-07-10T15:12:48.901Z,101592.13
2018-07-10T15:15:17.281Z,101591.34
2018-07-10T15:17:45.541Z,101599.48
2018-07-10T15:20:13.276Z,101594.23
2018-07-10T15:22:53.148Z,101600.66
2018-07-10T15:25:21.181Z,101599.87
2018-07-10T15:27:49.496Z,101597.73
2018-07-10T15:30:17.853Z,101594.83
2018-07-10T15:32:50.062Z,101596.21
2018-07-10T15:35:18.280Z,101591.83
2018-07-10T15:37:48.046Z,101593.70
2018-07-10T15:40:16.184Z,101594.78
2018-07-10T15:42:45.084Z,101594.77
2018-07-10T15:45:13.388Z,101599.51
2018-07-10T15:47:41.705Z,101600.13
2018-07-10T15:50:11.910Z,101596.80
2018-07-10T15:52:40.720Z,101596.78
2018-07-10T15:55:08.466Z,101603.46
2018-07-10T15:57:37.161Z,101601.17
2018-07-10T16:00:04.905Z,101606.02
2018-07-10T16:02:33.239Z,101611.88
2018-07-10T16:05:02.186Z,101613.15
2018-07-10T16:07:30.305Z,101612.91
2018-07-10T16:09:59.546Z,101610.44
2018-07-10T16:12:28.138Z,101612.05
2018-07-10T16:14:57.795Z,101610.98
2018-07-10T16:17:24.961Z,101607.19
2018-07-10T16:19:53.603Z,101608.97
2018-07-10T16:22:22.546Z,101611.30
2018-07-10T16:24:50.664Z,101610.71
2018-07-10T16:27:18.973Z,101613.55
2018-07-10T16:29:47.320Z,101608.04
2018-07-10T16:32:15.642Z,101607.88
2018-07-10T16:34:43.418Z,101612.13
2018-07-10T16:37:13.807Z,101604.36
2018-07-10T16:39:42.599Z,101601.48
2018-07-10T16:42:11.203Z,101596.93
2018-07-10T16:44:38.736Z,101602.55
2018-07-10T16:47:07.351Z,101605.03
2018-07-10T16:49:35.959Z,101609.58
2018-07-10T16:52:04.276Z,101612.78
2018-07-10T16:54:33.478Z,101617.61
2018-07-10T16:57:02.783Z,101615.83
2018-07-10T16:59:31.043Z,101621.34
2018-07-10T17:02:01.392Z,101623.70
2018-07-10T17:04:32.280Z,101623.80
2018-07-10T17:06:57.038Z,101622.76
2018-07-10T17:09:26.035Z,101627.20
2018-07-10T17:11:54.389Z,101623.11
2018-07-10T17:14:22.655Z,101621.77
2018-07-10T17:16:54.749Z,101622.80
2018-07-10T17:19:25.319Z,101623.48
2018-07-10T17:21:53.613Z,101620.90
2018-07-10T17:24:22.018Z,101617.83
2018-07-10T17:26:50.337Z,101621.13
2018-07-10T17:29:19.355Z,101621.97
2018-07-10T17:31:46.459Z,101618.26
2018-07-10T17:34:15.383Z,101614.43
2018-07-10T17:36:43.696Z,101613.72
2018-07-10T17:39:12.441Z,101618.88
2018-07-10T17:41:41.413Z,101621.89
2018-07-10T17:44:10.012Z,101622.56
2018-07-10T17:46:38.606Z,101623.93
2018-07-10T17:49:06.410Z,101620.64
2018-07-10T17:51:34.983Z,101625.33
2018-07-10T17:54:03.962Z,101624.70
2018-07-10T17:56:32.345Z,101621.97
2018-07-10T17:59:00.682Z,101622.61
2018-07-10T18:01:29.004Z,101624.45
2018-07-10T18:03:57.367Z,101623.44
2018-07-10T18:06:25.078Z,101625.75
2018-07-10T18:08:53.981Z,101624.33
2018-07-10T18:11:21.754Z,101630.97
2018-07-10T18:13:50.652Z,101632.02
2018-07-10T18:16:19.003Z,101636.36
2018-07-10T18:18:46.726Z,101636.77
2018-07-10T18:21:17.136Z,101636.61
2018-07-10T18:23:45.424Z,101642.72
2018-07-10T18:26:15.485Z,101639.42
2018-07-10T18:28:42.222Z,101644.05
2018-07-10T18:31:10.533Z,101642.86
2018-07-10T18:33:39.435Z,101649.66
2018-07-10T18:36:08.839Z,101649.10
2018-07-10T18:38:36.953Z,101645.95
2018-07-10T18:41:05.321Z,101642.30
2018-07-10T18:43:33.652Z,101637.54
2018-07-10T18:46:01.978Z,101634.36
2018-07-10T18:48:30.402Z,101637.18
2018-07-10T18:50:58.746Z,101640.27
2018-07-10T18:53:28.127Z,101644.16
2018-07-10T18:55:56.270Z,101645.78
2018-07-10T18:58:24.628Z,101645.69
2018-07-10T19:00:52.972Z,101650.74
2018-07-10T19:03:21.308Z,101650.66
2018-07-10T19:05:49.645Z,101653.63
2018-07-10T19:08:19.634Z,101643.85
2018-07-10T19:10:47.693Z,101646.05
2018-07-10T19:13:15.999Z,101643.53
2018-07-10T19:15:44.340Z,101644.77
2018-07-10T19:18:15.526Z,101642.94
2018-07-10T19:20:43.874Z,101642.03
2018-07-10T19:23:12.257Z,101644.20
2018-07-10T19:25:41.515Z,101649.78
2018-07-10T19:28:11.006Z,101643.48
2018-07-10T19:30:40.119Z,101645.62
2018-07-10T19:33:08.464Z,101648.48
2018-07-10T19:35:37.838Z,101645.80
2018-07-10T19:38:07.460Z,101638.85
2018-07-10T19:40:35.826Z,101635.98
2018-07-10T19:43:04.209Z,101635.30
2018-07-10T19:45:32.722Z,101631.50
2018-07-10T19:48:01.706Z,101631.73
2018-07-10T19:50:30.026Z,101628.90
2018-07-10T19:52:58.378Z,101626.22
2018-07-10T19:55:27.290Z,101620.47
2018-07-10T19:57:55.625Z,101617.33
2018-07-10T20:00:24.197Z,101613.42
2018-07-10T20:02:53.570Z,101618.09
2018-07-10T20:05:22.148Z,101619.50
2018-07-10T20:07:51.251Z,101622.02
2018-07-10T20:10:20.996Z,101623.63
2018-07-10T20:12:48.157Z,101625.55
2018-07-10T20:15:16.492Z,101625.92
2018-07-10T20:17:44.451Z,101625.81
2018-07-10T20:20:12.566Z,101620.28
2018-07-10T20:22:41.725Z,101612.70
2018-07-10T20:25:10.798Z,101616.10
2018-07-10T20:27:41.032Z,101622.67
2018-07-10T20:30:10.575Z,101621.50
2018-07-10T20:32:39.617Z,101618.28
2018-07-10T20:35:07.945Z,101619.66
2018-07-10T20:37:36.601Z,101627.00
2018-07-10T20:40:06.252Z,101631.34
2018-07-10T20:42:34.845Z,101632.77
2018-07-10T20:45:03.401Z,101631.67
2018-07-10T20:47:32.424Z,101628.33
2018-07-10T20:50:00.937Z,101631.32
2018-07-10T20:52:30.102Z,101636.30
2018-07-10T20:55:06.231Z,101639.25
2018-07-10T20:57:34.955Z,101640.89
2018-07-10T21:00:03.316Z,101641.88
2018-07-10T21:02:31.068Z,101639.89
2018-07-10T21:04:59.969Z,101639.63
2018-07-10T21:07:28.333Z,101640.98
2018-07-10T21:09:56.084Z,101644.58
2018-07-10T21:12:26.288Z,101643.02
2018-07-10T21:14:54.037Z,101646.14
2018-07-10T21:17:22.940Z,101641.34
2018-07-10T21:19:51.261Z,101643.74
2018-07-10T21:22:19.588Z,101643.11
2018-07-10T21:24:47.641Z,101642.05
2018-07-10T21:27:15.684Z,101641.63
2018-07-10T21:29:44.543Z,101639.58
2018-07-10T21:32:12.709Z,101634.19
2018-07-10T21:34:41.189Z,101632.14
2018-07-10T21:37:08.941Z,101636.66
2018-07-10T21:39:37.848Z,101634.34
2018-07-10T21:42:06.177Z,101635.45
2018-07-10T21:44:33.917Z,101640.22
2018-07-10T21:47:02.829Z,101638.00
2018-07-10T21:49:31.157Z,101639.62
2018-07-10T21:51:59.506Z,101638.68
2018-07-10T21:54:27.388Z,101634.53
2018-07-10T21:56:56.310Z,101631.92
2018-07-10T21:59:24.629Z,101633.00
2018-07-10T22:01:52.946Z,101629.46
2018-07-10T22:04:20.687Z,101624.62
2018-07-10T22:06:49.584Z,101630.34
2018-07-10T22:09:17.365Z,101632.36
2018-07-10T22:11:45.661Z,101633.75
2018-07-10T22:14:14.569Z,101635.32
2018-07-10T22:16:42.310Z,101632.27
2018-07-10T22:19:11.201Z,101630.33
2018-07-10T22:21:39.853Z,101630.23
2018-07-10T22:24:07.598Z,101624.81
2018-07-10T22:26:35.917Z,101629.09
2018-07-10T22:29:04.233Z,101622.30
2018-07-10T22:31:34.110Z,101622.49
2018-07-10T22:34:02.409Z,101620.34
2018-07-10T22:36:31.059Z,101619.30
2018-07-10T22:38:59.378Z,101611.30
2018-07-10T22:41:27.114Z,101615.97
2018-07-10T22:43:56.017Z,101610.65
2018-07-10T22:46:23.762Z,101603.05
2018-07-10T22:51:48.644Z,101602.86
2018-07-10T22:54:16.391Z,101600.17
2018-07-10T22:56:45.289Z,101598.94
2018-07-10T22:59:13.622Z,101598.33
2018-07-10T23:01:41.914Z,101594.08
2018-07-10T23:04:10.420Z,101591.57
2018-07-10T23:06:38.736Z,101586.52
2018-07-10T23:09:07.630Z,101581.02
2018-07-10T23:14:34.798Z,101580.75
2018-07-10T23:17:03.111Z,101573.80
2018-07-10T23:19:32.014Z,101572.42
2018-07-10T23:22:00.328Z,101568.67
2018-07-10T23:24:28.204Z,101574.04
2018-07-10T23:26:56.962Z,101573.63
2018-07-10T23:29:25.280Z,101572.08
2018-07-10T23:31:53.596Z,101567.95
2018-07-10T23:34:21.342Z,101568.92
2018-07-10T23:36:49.658Z,101565.99
2018-07-10T23:39:17.976Z,101563.80
2018-07-10T23:41:46.296Z,101558.72
2018-07-10T23:44:15.193Z,101551.38
2018-07-10T23:46:43.503Z,101551.30
2018-07-10T23:49:11.246Z,101544.29
2018-07-10T23:51:39.561Z,101544.36
2018-07-10T23:54:08.456Z,101537.08
2018-07-10T23:56:36.193Z,101535.64
2018-07-10T23:59:06.014Z,101535.08
